createdAt,value
2022-10-02T00:00:29.830Z,0.00
2022-10-02T00:01:29.788Z,0.00
2022-10-02T00:02:29.762Z,0.00
2022-10-02T00:03:29.767Z,0.00
2022-10-02T00:04:29.830Z,0.00
2022-10-02T00:05:29.754Z,0.00
2022-10-02T00:06:29.729Z,0.00
2022-10-02T00:07:29.714Z,0.00
2022-10-02T00:08:29.731Z,0.00
2022-10-02T00:09:29.704Z,0.00
2022-10-02T00:10:29.694Z,0.00
2022-10-02T00:11:29.665Z,0.00
2022-10-02T00:12:29.694Z,0.00
2022-10-02T00:13:29.635Z,0.00
2022-10-02T00:14:29.622Z,0.00
2022-10-02T00:15:29.618Z,0.00
2022-10-02T00:16:29.733Z,0.00
2022-10-02T00:17:29.583Z,0.00
2022-10-02T00:18:29.630Z,0.00
2022-10-02T00:19:29.569Z,0.00
2022-10-02T00:20:29.553Z,0.00
2022-10-02T00:21:29.550Z,0.00
2022-10-02T00:22:29.540Z,0.00
2022-10-02T00:23:29.527Z,0.00
2022-10-02T00:24:29.529Z,0.00
2022-10-02T00:25:29.500Z,0.00
2022-10-02T00:26:30.475Z,0.00
2022-10-02T00:27:29.523Z,0.00
2022-10-02T00:28:29.555Z,0.00
2022-10-02T00:29:29.475Z,0.00
2022-10-02T00:30:29.479Z,0.00
2022-10-02T00:31:29.509Z,0.00
2022-10-02T00:32:29.427Z,0.00
2022-10-02T00:33:29.467Z,0.00
2022-10-02T00:34:29.390Z,0.00
2022-10-02T00:35:29.424Z,0.00
2022-10-02T00:36:29.400Z,0.00
2022-10-02T00:37:29.373Z,0.00
2022-10-02T00:38:29.421Z,0.00
2022-10-02T00:39:29.369Z,0.00
2022-10-02T00:40:29.333Z,0.00
2022-10-02T00:41:29.325Z,0.00
2022-10-02T00:42:29.342Z,0.00
2022-10-02T00:43:29.353Z,0.00
2022-10-02T00:44:29.298Z,0.00
2022-10-02T00:45:29.350Z,0.00
2022-10-02T00:46:29.263Z,0.00
2022-10-02T00:47:29.267Z,0.00
2022-10-02T00:48:29.269Z,0.00
2022-10-02T00:49:29.295Z,0.00
2022-10-02T00:50:29.228Z,0.00
2022-10-02T00:51:29.259Z,0.00
2022-10-02T00:52:29.214Z,0.00
2022-10-02T00:53:29.194Z,0.00
2022-10-02T00:54:29.197Z,0.00
2022-10-02T00:55:29.190Z,0.00
2022-10-02T00:56:29.180Z,0.00
2022-10-02T00:57:29.162Z,0.00
2022-10-02T00:58:29.138Z,0.00
2022-10-02T00:59:29.117Z,0.00
2022-10-02T01:00:29.124Z,0.00
2022-10-02T01:01:29.280Z,0.00
2022-10-02T01:02:29.155Z,0.00
2022-10-02T01:03:29.085Z,0.00
2022-10-02T01:04:29.131Z,0.00
2022-10-02T01:05:29.045Z,0.00
2022-10-02T01:06:29.086Z,0.00
2022-10-02T01:07:29.083Z,0.00
2022-10-02T01:08:29.019Z,0.00
2022-10-02T01:09:29.019Z,0.00
2022-10-02T01:10:29.058Z,0.00
2022-10-02T01:11:28.986Z,0.00
2022-10-02T01:12:28.996Z,0.00
2022-10-02T01:13:29.014Z,0.00
2022-10-02T01:14:28.946Z,0.00
2022-10-02T01:15:28.979Z,0.00
2022-10-02T01:16:29.030Z,0.00
2022-10-02T01:17:28.932Z,0.00
2022-10-02T01:18:28.930Z,0.00
2022-10-02T01:19:28.973Z,0.00
2022-10-02T01:20:28.883Z,0.00
2022-10-02T01:21:28.888Z,0.00
2022-10-02T01:22:28.897Z,0.00
2022-10-02T01:23:28.871Z,0.00
2022-10-02T01:24:28.845Z,0.00
2022-10-02T01:25:28.869Z,0.00
2022-10-02T01:26:28.872Z,0.00
2022-10-02T01:27:28.819Z,0.00
2022-10-02T01:28:28.901Z,0.00
2022-10-02T01:29:28.785Z,0.00
2022-10-02T01:30:28.797Z,0.00
2022-10-02T01:31:28.874Z,0.00
2022-10-02T01:32:28.816Z,0.00
2022-10-02T01:33:28.737Z,0.00
2022-10-02T01:34:28.774Z,0.00
2022-10-02T01:35:28.727Z,0.00
2022-10-02T01:36:28.691Z,0.00
2022-10-02T01:37:28.725Z,0.00
2022-10-02T01:38:28.710Z,0.00
2022-10-02T01:39:28.664Z,0.00
2022-10-02T01:40:28.644Z,0.00
2022-10-02T01:41:28.695Z,0.00
2022-10-02T01:42:28.650Z,0.00
2022-10-02T01:43:28.651Z,0.00
2022-10-02T01:44:28.630Z,0.00
2022-10-02T01:45:28.625Z,0.00
2022-10-02T01:46:28.603Z,0.00
2022-10-02T01:47:28.592Z,0.00
2022-10-02T01:48:28.642Z,0.00
2022-10-02T01:49:28.563Z,0.00
2022-10-02T01:50:28.541Z,0.00
2022-10-02T01:51:28.555Z,0.00
2022-10-02T01:52:28.537Z,0.00
2022-10-02T01:53:29.466Z,0.00
2022-10-02T01:54:28.577Z,0.00
2022-10-02T01:55:28.500Z,0.00
2022-10-02T01:56:28.498Z,0.00
2022-10-02T01:57:28.483Z,0.00
2022-10-02T01:58:28.450Z,0.00
2022-10-02T01:59:28.451Z,0.00
2022-10-02T02:00:28.439Z,0.00
2022-10-02T02:01:28.509Z,0.00
2022-10-02T02:02:28.487Z,0.00
2022-10-02T02:03:28.410Z,0.00
2022-10-02T02:04:28.393Z,0.00
2022-10-02T02:05:28.377Z,0.00
2022-10-02T02:06:28.378Z,0.00
2022-10-02T02:07:28.434Z,0.00
2022-10-02T02:08:29.038Z,0.00
2022-10-02T02:09:28.352Z,0.00
2022-10-02T02:10:28.844Z,0.00
2022-10-02T02:11:28.378Z,0.00
2022-10-02T02:12:28.301Z,0.00
2022-10-02T02:13:28.320Z,0.00
2022-10-02T02:14:28.278Z,0.00
2022-10-02T02:15:28.278Z,0.00
2022-10-02T02:16:28.310Z,0.00
2022-10-02T02:17:28.266Z,0.00
2022-10-02T02:18:28.232Z,0.00
2022-10-02T02:19:28.280Z,0.00
2022-10-02T02:20:28.211Z,0.00
2022-10-02T02:21:28.252Z,0.00
2022-10-02T02:22:28.184Z,0.00
2022-10-02T02:23:28.206Z,0.00
2022-10-02T02:24:28.192Z,0.00
2022-10-02T02:25:28.145Z,0.00
2022-10-02T02:26:28.138Z,0.00
2022-10-02T02:27:28.124Z,0.00
2022-10-02T02:28:29.097Z,0.00
2022-10-02T02:29:28.106Z,0.00
2022-10-02T02:30:28.135Z,0.00
2022-10-02T02:31:28.116Z,0.00
2022-10-02T02:32:28.066Z,0.00
2022-10-02T02:33:28.128Z,0.00
2022-10-02T02:34:28.066Z,0.00
2022-10-02T02:35:28.042Z,0.00
2022-10-02T02:36:28.069Z,0.00
2022-10-02T02:37:28.050Z,0.00
2022-10-02T02:38:28.001Z,0.00
2022-10-02T02:39:28.011Z,0.00
2022-10-02T02:40:28.019Z,0.00
2022-10-02T02:41:27.960Z,0.00
2022-10-02T02:42:28.522Z,0.00
2022-10-02T02:43:27.968Z,0.00
2022-10-02T02:44:27.934Z,0.00
2022-10-02T02:45:27.957Z,0.00
2022-10-02T02:46:27.928Z,0.00
2022-10-02T02:47:27.906Z,0.00
2022-10-02T02:48:27.893Z,0.00
2022-10-02T02:49:27.888Z,0.00
2022-10-02T02:50:27.883Z,0.00
2022-10-02T02:51:27.881Z,0.00
2022-10-02T02:52:27.863Z,0.00
2022-10-02T02:53:27.840Z,0.00
2022-10-02T02:54:27.830Z,0.00
2022-10-02T02:55:27.821Z,0.00
2022-10-02T02:56:27.830Z,0.00
2022-10-02T02:57:27.825Z,0.00
2022-10-02T02:58:27.775Z,0.00
2022-10-02T02:59:27.772Z,0.00
2022-10-02T03:00:27.796Z,0.00
2022-10-02T03:01:27.863Z,0.00
2022-10-02T03:02:27.787Z,0.00
2022-10-02T03:03:27.735Z,0.00
2022-10-02T03:04:27.715Z,0.00
2022-10-02T03:05:27.744Z,0.00
2022-10-02T03:06:27.695Z,0.00
2022-10-02T03:07:27.679Z,0.00
2022-10-02T03:08:27.845Z,0.00
2022-10-02T03:09:27.703Z,0.00
2022-10-02T03:10:27.683Z,0.00
2022-10-02T03:11:27.628Z,0.00
2022-10-02T03:12:27.625Z,0.00
2022-10-02T03:13:27.627Z,0.00
2022-10-02T03:14:27.696Z,0.00
2022-10-02T03:15:27.592Z,0.00
2022-10-02T03:16:27.593Z,0.00
2022-10-02T03:17:27.574Z,0.00
2022-10-02T03:18:27.570Z,0.00
2022-10-02T03:19:27.566Z,0.00
2022-10-02T03:20:27.560Z,0.00
2022-10-02T03:21:27.544Z,0.00
2022-10-02T03:22:27.505Z,0.00
2022-10-02T03:23:27.515Z,0.00
2022-10-02T03:24:27.504Z,0.00
2022-10-02T03:25:27.488Z,0.00
2022-10-02T03:26:27.463Z,0.00
2022-10-02T03:27:30.301Z,0.00
2022-10-02T03:28:53.618Z,0.00
2022-10-02T03:29:27.459Z,0.00
2022-10-02T03:30:27.466Z,0.00
2022-10-02T03:31:27.571Z,0.00
2022-10-02T03:32:27.423Z,0.00
2022-10-02T03:33:27.402Z,0.00
2022-10-02T03:34:27.380Z,0.00
2022-10-02T03:35:27.379Z,0.00
2022-10-02T03:36:27.393Z,0.00
2022-10-02T03:37:27.357Z,0.00
2022-10-02T03:38:27.387Z,0.00
2022-10-02T03:39:27.319Z,0.00
2022-10-02T03:40:27.375Z,0.00
2022-10-02T03:41:27.294Z,0.00
2022-10-02T03:42:27.297Z,0.00
2022-10-02T03:43:27.265Z,0.00
2022-10-02T03:44:27.261Z,0.00
2022-10-02T03:45:49.372Z,0.00
2022-10-02T03:46:27.330Z,0.00
2022-10-02T03:47:27.241Z,0.00
2022-10-02T03:48:27.225Z,0.00
2022-10-02T03:49:27.212Z,0.00
2022-10-02T03:50:27.224Z,0.00
2022-10-02T03:51:27.183Z,0.00
2022-10-02T03:52:27.189Z,0.00
2022-10-02T03:53:27.163Z,0.00
2022-10-02T03:54:27.153Z,0.00
2022-10-02T03:55:27.128Z,0.00
2022-10-02T03:56:27.122Z,0.00
2022-10-02T03:57:27.131Z,0.00
2022-10-02T03:58:27.112Z,0.00
2022-10-02T03:59:27.091Z,0.00
2022-10-02T04:00:27.079Z,0.00
2022-10-02T04:01:27.132Z,0.00
2022-10-02T04:02:27.116Z,0.00
2022-10-02T04:03:27.099Z,0.00
2022-10-02T04:04:27.027Z,0.00
2022-10-02T04:05:27.060Z,0.00
2022-10-02T04:06:27.013Z,0.00
2022-10-02T04:07:26.999Z,0.00
2022-10-02T04:08:26.995Z,0.00
2022-10-02T04:09:26.985Z,0.00
2022-10-02T04:10:26.993Z,0.00
2022-10-02T04:11:26.964Z,0.00
2022-10-02T04:12:26.972Z,0.00
2022-10-02T04:13:26.923Z,0.00
2022-10-02T04:14:26.928Z,0.00
2022-10-02T04:15:26.921Z,0.00
2022-10-02T04:16:26.912Z,0.00
2022-10-02T04:17:26.951Z,0.00
2022-10-02T04:18:26.886Z,0.00
2022-10-02T04:19:26.868Z,0.00
2022-10-02T04:20:26.860Z,0.00
2022-10-02T04:21:26.846Z,0.00
2022-10-02T04:22:26.843Z,0.00
2022-10-02T04:23:26.850Z,0.00
2022-10-02T04:24:26.820Z,0.00
2022-10-02T04:25:26.794Z,0.00
2022-10-02T04:26:26.809Z,0.00
2022-10-02T04:27:26.788Z,0.00
2022-10-02T04:28:26.915Z,0.00
2022-10-02T04:29:26.759Z,0.00
2022-10-02T04:30:26.767Z,0.00
2022-10-02T04:31:26.788Z,0.00
2022-10-02T04:32:26.738Z,0.00
2022-10-02T04:33:26.735Z,0.00
2022-10-02T04:34:26.701Z,0.00
2022-10-02T04:35:26.833Z,0.00
2022-10-02T04:36:26.672Z,0.00
2022-10-02T04:37:26.664Z,0.00
2022-10-02T04:38:26.671Z,0.00
2022-10-02T04:39:26.641Z,0.00
2022-10-02T04:40:26.652Z,0.00
2022-10-02T04:41:26.637Z,0.00
2022-10-02T04:42:26.610Z,0.00
2022-10-02T04:43:26.694Z,0.00
2022-10-02T04:44:26.576Z,0.00
2022-10-02T04:45:26.667Z,0.00
2022-10-02T04:46:26.587Z,0.00
2022-10-02T04:47:26.568Z,0.00
2022-10-02T04:48:26.586Z,0.00
2022-10-02T04:49:26.554Z,0.00
2022-10-02T04:50:26.534Z,0.00
2022-10-02T04:51:26.504Z,0.00
2022-10-02T04:52:26.528Z,0.00
2022-10-02T04:53:26.479Z,0.00
2022-10-02T04:54:26.467Z,0.00
2022-10-02T04:55:26.459Z,0.00
2022-10-02T04:56:26.437Z,0.00
2022-10-02T04:57:26.439Z,0.00
2022-10-02T04:58:26.482Z,0.00
2022-10-02T04:59:26.436Z,0.00
2022-10-02T05:00:26.409Z,0.00
2022-10-02T05:01:26.406Z,0.00
2022-10-02T05:02:26.441Z,0.00
2022-10-02T05:03:26.381Z,0.00
2022-10-02T05:04:26.386Z,0.00
2022-10-02T05:05:26.384Z,0.00
2022-10-02T05:06:26.385Z,0.00
2022-10-02T05:07:26.328Z,0.00
2022-10-02T05:08:26.310Z,0.00
2022-10-02T05:09:28.528Z,0.00
2022-10-02T05:10:26.301Z,0.00
2022-10-02T05:11:26.280Z,0.00
2022-10-02T05:12:26.346Z,0.00
2022-10-02T05:13:26.262Z,0.00
2022-10-02T05:14:26.392Z,0.00
2022-10-02T05:15:26.233Z,0.00
2022-10-02T05:16:26.336Z,0.00
2022-10-02T05:17:26.258Z,0.00
2022-10-02T05:18:26.208Z,0.00
2022-10-02T05:19:26.189Z,0.00
2022-10-02T05:20:26.198Z,0.00
2022-10-02T05:21:26.165Z,0.00
2022-10-02T05:22:26.180Z,0.00
2022-10-02T05:23:26.147Z,0.00
2022-10-02T05:24:26.131Z,0.00
2022-10-02T05:25:26.130Z,0.00
2022-10-02T05:26:26.160Z,5.62
2022-10-02T05:27:26.138Z,0.00
2022-10-02T05:28:26.123Z,5.62
2022-10-02T05:29:26.088Z,5.62
2022-10-02T05:30:26.061Z,5.62
2022-10-02T05:31:26.094Z,5.62
2022-10-02T05:32:26.115Z,5.62
2022-10-02T05:33:26.039Z,5.62
2022-10-02T05:34:26.023Z,5.62
2022-10-02T05:35:26.065Z,5.62
2022-10-02T05:36:26.012Z,5.62
2022-10-02T05:37:25.989Z,11.25
2022-10-02T05:38:26.038Z,11.25
2022-10-02T05:39:25.961Z,11.25
2022-10-02T05:40:25.962Z,11.25
2022-10-02T05:41:25.974Z,11.25
2022-10-02T05:42:25.925Z,11.25
2022-10-02T05:43:25.954Z,11.25
2022-10-02T05:44:26.026Z,11.25
2022-10-02T05:45:25.890Z,16.88
2022-10-02T05:46:25.906Z,22.50
2022-10-02T05:47:25.945Z,28.12
2022-10-02T05:48:25.914Z,22.50
2022-10-02T05:49:25.854Z,22.50
2022-10-02T05:50:25.884Z,28.12
2022-10-02T05:51:25.861Z,28.12
2022-10-02T05:52:25.817Z,28.12
2022-10-02T05:53:25.801Z,28.12
2022-10-02T05:54:25.848Z,28.12
2022-10-02T05:55:26.603Z,28.12
2022-10-02T05:56:25.817Z,28.12
2022-10-02T05:57:25.757Z,33.75
2022-10-02T05:58:25.756Z,33.75
2022-10-02T05:59:25.796Z,33.75
2022-10-02T06:00:25.758Z,33.75
2022-10-02T06:01:25.774Z,33.75
2022-10-02T06:02:25.845Z,39.38
2022-10-02T06:03:25.690Z,39.38
2022-10-02T06:04:25.701Z,39.38
2022-10-02T06:05:25.702Z,39.38
2022-10-02T06:06:25.927Z,39.38
2022-10-02T06:07:25.653Z,39.38
2022-10-02T06:08:25.685Z,39.38
2022-10-02T06:09:25.630Z,39.38
2022-10-02T06:10:25.603Z,39.38
2022-10-02T06:11:25.653Z,39.38
2022-10-02T06:12:25.621Z,39.38
2022-10-02T06:13:25.660Z,39.38
2022-10-02T06:14:25.586Z,39.38
2022-10-02T06:15:25.574Z,33.75
2022-10-02T06:16:25.646Z,33.75
2022-10-02T06:17:25.587Z,33.75
2022-10-02T06:18:25.535Z,39.38
2022-10-02T06:19:25.723Z,33.75
2022-10-02T06:20:27.647Z,33.75
2022-10-02T06:21:25.621Z,33.75
2022-10-02T06:22:25.621Z,33.75
2022-10-02T06:23:26.555Z,33.75
2022-10-02T06:24:25.498Z,33.75
2022-10-02T06:25:25.642Z,33.75
2022-10-02T06:26:25.469Z,33.75
2022-10-02T06:27:25.464Z,33.75
2022-10-02T06:28:25.506Z,33.75
2022-10-02T06:29:27.330Z,28.12
2022-10-02T06:30:25.509Z,33.75
2022-10-02T06:31:25.419Z,33.75
2022-10-02T06:32:25.392Z,39.38
2022-10-02T06:33:25.391Z,39.38
2022-10-02T06:34:25.347Z,39.38
2022-10-02T06:35:25.377Z,39.38
2022-10-02T06:36:25.318Z,39.38
2022-10-02T06:37:25.335Z,39.38
2022-10-02T06:38:25.621Z,39.38
2022-10-02T06:39:25.324Z,45.00
2022-10-02T06:40:25.332Z,45.00
2022-10-02T06:41:25.305Z,50.62
2022-10-02T06:42:25.310Z,50.62
2022-10-02T06:43:25.281Z,50.62
2022-10-02T06:44:26.005Z,50.62
2022-10-02T06:45:25.323Z,50.62
2022-10-02T06:46:25.224Z,50.62
2022-10-02T06:47:25.355Z,50.62
2022-10-02T06:48:25.228Z,50.62
2022-10-02T06:49:25.207Z,56.25
2022-10-02T06:50:25.165Z,50.62
2022-10-02T06:51:25.142Z,50.62
2022-10-02T06:52:25.256Z,50.62
2022-10-02T06:53:25.126Z,50.62
2022-10-02T06:54:25.125Z,56.25
2022-10-02T06:55:25.119Z,50.62
2022-10-02T06:56:25.111Z,50.62
2022-10-02T06:57:25.095Z,50.62
2022-10-02T06:58:25.122Z,56.25
2022-10-02T06:59:25.054Z,50.62
2022-10-02T07:00:25.092Z,50.62
2022-10-02T07:01:25.473Z,50.62
2022-10-02T07:02:25.088Z,50.62
2022-10-02T07:03:25.028Z,50.62
2022-10-02T07:04:25.091Z,50.62
2022-10-02T07:05:25.012Z,56.25
2022-10-02T07:06:24.982Z,56.25
2022-10-02T07:07:24.968Z,56.25
2022-10-02T07:08:25.034Z,56.25
2022-10-02T07:09:24.953Z,56.25
2022-10-02T07:10:24.969Z,56.25
2022-10-02T07:11:24.926Z,50.62
2022-10-02T07:12:24.942Z,50.62
2022-10-02T07:13:24.913Z,50.62
2022-10-02T07:14:24.910Z,50.62
2022-10-02T07:15:24.923Z,50.62
2022-10-02T07:16:25.020Z,56.25
2022-10-02T07:17:24.864Z,56.25
2022-10-02T07:18:24.898Z,56.25
2022-10-02T07:19:24.838Z,56.25
2022-10-02T07:20:24.844Z,56.25
2022-10-02T07:21:24.822Z,61.88
2022-10-02T07:22:43.834Z,61.88
2022-10-02T07:23:24.871Z,61.88
2022-10-02T07:24:24.784Z,61.88
2022-10-02T07:25:24.771Z,61.88
2022-10-02T07:26:24.786Z,61.88
2022-10-02T07:27:24.751Z,67.50
2022-10-02T07:28:24.865Z,67.50
2022-10-02T07:29:24.718Z,67.50
2022-10-02T07:30:24.763Z,67.50
2022-10-02T07:31:24.764Z,67.50
2022-10-02T07:32:24.712Z,67.50
2022-10-02T07:33:29.811Z,67.50
2022-10-02T07:34:24.699Z,67.50
2022-10-02T07:35:24.670Z,67.50
2022-10-02T07:36:24.665Z,67.50
2022-10-02T07:37:24.651Z,67.50
2022-10-02T07:38:24.627Z,73.12
2022-10-02T07:39:24.636Z,73.12
2022-10-02T07:40:24.616Z,73.12
2022-10-02T07:41:24.599Z,73.12
2022-10-02T07:42:24.690Z,73.12
2022-10-02T07:43:24.585Z,73.12
2022-10-02T07:44:24.566Z,73.12
2022-10-02T07:45:24.591Z,67.50
2022-10-02T07:46:24.535Z,67.50
2022-10-02T07:47:24.561Z,67.50
2022-10-02T07:48:24.535Z,67.50
2022-10-02T07:49:24.506Z,67.50
2022-10-02T07:50:24.521Z,61.88
2022-10-02T07:51:24.483Z,61.88
2022-10-02T07:52:24.531Z,56.25
2022-10-02T07:53:24.492Z,61.88
2022-10-02T07:54:24.437Z,56.25
2022-10-02T07:55:24.436Z,61.88
2022-10-02T07:56:24.449Z,56.25
2022-10-02T07:57:24.422Z,50.62
2022-10-02T07:58:24.421Z,56.25
2022-10-02T07:59:24.430Z,56.25
2022-10-02T08:00:24.384Z,56.25
2022-10-02T08:01:24.388Z,56.25
2022-10-02T08:02:24.434Z,56.25
2022-10-02T08:03:24.435Z,50.62
2022-10-02T08:04:24.345Z,56.25
2022-10-02T08:05:24.335Z,56.25
2022-10-02T08:06:24.303Z,56.25
2022-10-02T08:07:24.325Z,56.25
2022-10-02T08:08:24.311Z,56.25
2022-10-02T08:09:24.285Z,56.25
2022-10-02T08:10:24.260Z,50.62
2022-10-02T08:11:24.272Z,56.25
2022-10-02T08:12:24.233Z,56.25
2022-10-02T08:13:24.322Z,50.62
2022-10-02T08:14:24.226Z,50.62
2022-10-02T08:15:24.237Z,50.62
2022-10-02T08:16:24.238Z,50.62
2022-10-02T08:17:24.205Z,50.62
2022-10-02T08:18:34.055Z,45.00
2022-10-02T08:19:24.225Z,45.00
2022-10-02T08:20:28.594Z,50.62
2022-10-02T08:21:24.156Z,50.62
2022-10-02T08:22:24.125Z,56.25
2022-10-02T08:23:24.147Z,56.25
2022-10-02T08:24:24.138Z,56.25
2022-10-02T08:25:24.101Z,56.25
2022-10-02T08:26:24.197Z,56.25
2022-10-02T08:27:24.142Z,56.25
2022-10-02T08:28:24.155Z,56.25
2022-10-02T08:29:24.087Z,56.25
2022-10-02T08:30:24.055Z,56.25
2022-10-02T08:31:24.079Z,56.25
2022-10-02T08:32:24.026Z,56.25
2022-10-02T08:33:24.015Z,56.25
2022-10-02T08:34:23.987Z,61.88
2022-10-02T08:35:24.020Z,61.88
2022-10-02T08:36:23.989Z,61.88
2022-10-02T08:37:23.948Z,61.88
2022-10-02T08:38:23.961Z,61.88
2022-10-02T08:39:23.955Z,61.88
2022-10-02T08:40:23.931Z,61.88
2022-10-02T08:41:23.930Z,67.50
2022-10-02T08:42:23.914Z,67.50
2022-10-02T08:43:23.914Z,67.50
2022-10-02T08:44:23.911Z,67.50
2022-10-02T08:45:23.928Z,67.50
2022-10-02T08:46:23.887Z,67.50
2022-10-02T08:47:23.857Z,67.50
2022-10-02T08:48:23.845Z,67.50
2022-10-02T08:49:23.832Z,67.50
2022-10-02T08:50:23.833Z,73.12
2022-10-02T08:51:23.867Z,67.50
2022-10-02T08:52:23.797Z,73.12
2022-10-02T08:53:23.780Z,73.12
2022-10-02T08:54:23.792Z,78.75
2022-10-02T08:55:23.767Z,78.75
2022-10-02T08:56:23.803Z,84.38
2022-10-02T08:57:23.751Z,84.38
2022-10-02T08:58:23.776Z,90.00
2022-10-02T08:59:23.733Z,90.00
2022-10-02T09:00:23.696Z,90.00
2022-10-02T09:01:23.759Z,95.62
2022-10-02T09:02:23.742Z,95.62
2022-10-02T09:03:23.698Z,95.62
2022-10-02T09:04:23.682Z,101.25
2022-10-02T09:05:23.693Z,101.25
2022-10-02T09:06:23.657Z,118.12
2022-10-02T09:07:27.989Z,123.75
2022-10-02T09:08:24.253Z,123.75
2022-10-02T09:09:23.674Z,129.38
2022-10-02T09:10:23.595Z,129.38
2022-10-02T09:11:23.597Z,123.75
2022-10-02T09:12:23.593Z,123.75
2022-10-02T09:13:23.562Z,106.88
2022-10-02T09:14:23.626Z,101.25
2022-10-02T09:15:23.534Z,95.62
2022-10-02T09:16:23.560Z,95.62
2022-10-02T09:17:23.519Z,95.62
2022-10-02T09:18:23.519Z,95.62
2022-10-02T09:19:23.486Z,95.62
2022-10-02T09:20:23.482Z,95.62
2022-10-02T09:21:23.457Z,95.62
2022-10-02T09:22:23.458Z,95.62
2022-10-02T09:23:23.494Z,95.62
2022-10-02T09:24:23.438Z,95.62
2022-10-02T09:25:23.428Z,95.62
2022-10-02T09:26:23.447Z,95.62
2022-10-02T09:27:23.409Z,95.62
2022-10-02T09:28:23.466Z,95.62
2022-10-02T09:29:23.376Z,95.62
2022-10-02T09:30:23.361Z,101.25
2022-10-02T09:31:23.422Z,101.25
2022-10-02T09:32:23.355Z,101.25
2022-10-02T09:33:23.393Z,101.25
2022-10-02T09:34:23.324Z,101.25
2022-10-02T09:35:23.301Z,101.25
2022-10-02T09:36:23.395Z,101.25
2022-10-02T09:37:23.316Z,101.25
2022-10-02T09:38:23.273Z,101.25
2022-10-02T09:39:23.270Z,101.25
2022-10-02T09:40:23.279Z,101.25
2022-10-02T09:41:23.251Z,101.25
2022-10-02T09:42:23.235Z,101.25
2022-10-02T09:43:23.237Z,101.25
2022-10-02T09:44:23.313Z,101.25
2022-10-02T09:45:23.325Z,101.25
2022-10-02T09:46:23.182Z,101.25
2022-10-02T09:47:23.173Z,101.25
2022-10-02T09:48:23.167Z,101.25
2022-10-02T09:49:23.178Z,101.25
2022-10-02T09:50:23.157Z,101.25
2022-10-02T09:51:23.166Z,101.25
2022-10-02T09:52:23.104Z,101.25
2022-10-02T09:53:23.148Z,101.25
2022-10-02T09:54:23.116Z,101.25
2022-10-02T09:55:23.111Z,101.25
2022-10-02T09:56:23.126Z,101.25
2022-10-02T09:57:23.057Z,101.25
2022-10-02T09:58:23.153Z,101.25
2022-10-02T09:59:23.032Z,101.25
2022-10-02T10:00:23.040Z,101.25
2022-10-02T10:01:23.302Z,101.25
2022-10-02T10:02:25.735Z,101.25
2022-10-02T10:03:22.990Z,106.88
2022-10-02T10:04:22.979Z,101.25
2022-10-02T10:05:22.977Z,101.25
2022-10-02T10:06:22.962Z,101.25
2022-10-02T10:07:23.156Z,101.25
2022-10-02T10:08:22.937Z,101.25
2022-10-02T10:09:22.919Z,101.25
2022-10-02T10:10:22.915Z,101.25
2022-10-02T10:11:23.630Z,101.25
2022-10-02T10:12:22.897Z,101.25
2022-10-02T10:13:22.975Z,101.25
2022-10-02T10:14:22.860Z,101.25
2022-10-02T10:15:22.912Z,101.25
2022-10-02T10:16:23.743Z,101.25
2022-10-02T10:17:22.822Z,101.25
2022-10-02T10:18:22.892Z,101.25
2022-10-02T10:19:22.815Z,101.25
2022-10-02T10:20:22.793Z,95.62
2022-10-02T10:21:25.674Z,95.62
2022-10-02T10:22:22.985Z,95.62
2022-10-02T10:23:22.802Z,95.62
2022-10-02T10:24:22.747Z,95.62
2022-10-02T10:25:22.741Z,95.62
2022-10-02T10:26:22.714Z,90.00
2022-10-02T10:27:22.738Z,90.00
2022-10-02T10:28:22.765Z,90.00
2022-10-02T10:29:22.686Z,90.00
2022-10-02T10:30:22.693Z,90.00
2022-10-02T10:31:22.699Z,90.00
2022-10-02T10:32:22.692Z,90.00
2022-10-02T10:33:22.636Z,90.00
2022-10-02T10:34:22.649Z,90.00
2022-10-02T10:35:22.643Z,84.38
2022-10-02T10:36:22.614Z,84.38
2022-10-02T10:37:22.619Z,84.38
2022-10-02T10:38:22.584Z,84.38
2022-10-02T10:39:22.627Z,84.38
2022-10-02T10:40:22.574Z,84.38
2022-10-02T10:41:22.584Z,78.75
2022-10-02T10:42:22.538Z,78.75
2022-10-02T10:43:22.541Z,78.75
2022-10-02T10:44:22.535Z,78.75
2022-10-02T10:45:23.075Z,78.75
2022-10-02T10:46:22.552Z,78.75
2022-10-02T10:47:22.481Z,84.38
2022-10-02T10:48:22.562Z,84.38
2022-10-02T10:49:22.500Z,84.38
2022-10-02T10:50:22.484Z,84.38
2022-10-02T10:51:22.453Z,84.38
2022-10-02T10:52:22.454Z,84.38
2022-10-02T10:53:22.416Z,84.38
2022-10-02T10:54:22.468Z,84.38
2022-10-02T10:55:22.416Z,84.38
2022-10-02T10:56:22.425Z,84.38
2022-10-02T10:57:22.404Z,84.38
2022-10-02T10:58:22.561Z,90.00
2022-10-02T10:59:25.349Z,90.00
2022-10-02T11:00:22.408Z,90.00
2022-10-02T11:01:22.360Z,90.00
2022-10-02T11:02:22.555Z,90.00
2022-10-02T11:03:22.302Z,90.00
2022-10-02T11:04:22.347Z,90.00
2022-10-02T11:05:22.727Z,95.62
2022-10-02T11:06:22.499Z,95.62
2022-10-02T11:07:22.270Z,95.62
2022-10-02T11:08:22.245Z,90.00
2022-10-02T11:09:22.236Z,95.62
2022-10-02T11:10:22.288Z,90.00
2022-10-02T11:11:22.226Z,95.62
2022-10-02T11:12:22.220Z,90.00
2022-10-02T11:13:22.309Z,90.00
2022-10-02T11:14:22.155Z,90.00
2022-10-02T11:15:22.198Z,90.00
2022-10-02T11:16:22.298Z,84.38
2022-10-02T11:17:22.149Z,84.38
2022-10-02T11:18:22.193Z,90.00
2022-10-02T11:19:22.178Z,90.00
2022-10-02T11:20:22.103Z,84.38
2022-10-02T11:21:22.138Z,78.75
2022-10-02T11:22:22.174Z,78.75
2022-10-02T11:23:22.084Z,78.75
2022-10-02T11:24:22.062Z,78.75
2022-10-02T11:25:22.055Z,78.75
2022-10-02T11:26:22.076Z,78.75
2022-10-02T11:27:22.023Z,78.75
2022-10-02T11:28:22.372Z,78.75
2022-10-02T11:29:22.024Z,78.75
2022-10-02T11:30:22.031Z,78.75
2022-10-02T11:31:22.065Z,78.75
2022-10-02T11:32:21.974Z,84.38
2022-10-02T11:33:22.027Z,90.00
2022-10-02T11:34:22.062Z,84.38
2022-10-02T11:35:21.974Z,90.00
2022-10-02T11:36:21.948Z,90.00
2022-10-02T11:37:22.156Z,95.62
2022-10-02T11:38:21.906Z,106.88
2022-10-02T11:39:22.792Z,112.50
2022-10-02T11:40:21.879Z,112.50
2022-10-02T11:41:21.874Z,118.12
2022-10-02T11:42:21.914Z,118.12
2022-10-02T11:43:21.900Z,112.50
2022-10-02T11:44:21.828Z,112.50
2022-10-02T11:45:21.841Z,112.50
2022-10-02T11:46:21.818Z,118.12
2022-10-02T11:47:21.796Z,123.75
2022-10-02T11:48:21.924Z,123.75
2022-10-02T11:49:21.777Z,118.12
2022-10-02T11:50:21.772Z,129.38
2022-10-02T11:51:21.743Z,123.75
2022-10-02T11:52:21.792Z,123.75
2022-10-02T11:53:21.725Z,123.75
2022-10-02T11:54:21.799Z,123.75
2022-10-02T11:55:21.708Z,123.75
2022-10-02T11:56:21.747Z,123.75
2022-10-02T11:57:21.748Z,129.38
2022-10-02T11:58:22.199Z,129.38
2022-10-02T11:59:21.710Z,129.38
2022-10-02T12:00:21.814Z,123.75
2022-10-02T12:01:21.664Z,129.38
2022-10-02T12:02:21.721Z,106.88
2022-10-02T12:03:21.696Z,106.88
2022-10-02T12:04:21.692Z,106.88
2022-10-02T12:05:21.605Z,106.88
2022-10-02T12:06:21.584Z,106.88
2022-10-02T12:07:21.578Z,112.50
2022-10-02T12:08:21.551Z,95.62
2022-10-02T12:09:21.567Z,101.25
2022-10-02T12:10:21.549Z,101.25
2022-10-02T12:11:21.512Z,95.62
2022-10-02T12:12:25.687Z,95.62
2022-10-02T12:13:21.558Z,90.00
2022-10-02T12:14:21.483Z,90.00
2022-10-02T12:15:21.497Z,95.62
2022-10-02T12:16:21.521Z,90.00
2022-10-02T12:17:21.461Z,84.38
2022-10-02T12:18:22.114Z,84.38
2022-10-02T12:19:21.472Z,78.75
2022-10-02T12:20:21.438Z,73.12
2022-10-02T12:21:21.426Z,67.50
2022-10-02T12:22:21.397Z,67.50
2022-10-02T12:23:21.413Z,61.88
2022-10-02T12:24:21.372Z,56.25
2022-10-02T12:25:21.354Z,56.25
2022-10-02T12:26:21.406Z,56.25
2022-10-02T12:27:21.378Z,56.25
2022-10-02T12:28:21.399Z,50.62
2022-10-02T12:29:21.345Z,56.25
2022-10-02T12:30:21.404Z,61.88
2022-10-02T12:31:21.330Z,61.88
2022-10-02T12:32:21.279Z,67.50
2022-10-02T12:33:21.418Z,61.88
2022-10-02T12:34:21.253Z,56.25
2022-10-02T12:35:21.253Z,67.50
2022-10-02T12:36:21.258Z,67.50
2022-10-02T12:37:21.303Z,61.88
2022-10-02T12:38:21.202Z,50.62
2022-10-02T12:39:22.129Z,50.62
2022-10-02T12:40:21.265Z,50.62
2022-10-02T12:41:21.170Z,50.62
2022-10-02T12:42:21.184Z,56.25
2022-10-02T12:43:21.186Z,56.25
2022-10-02T12:44:21.182Z,56.25
2022-10-02T12:45:21.202Z,56.25
2022-10-02T12:46:21.151Z,61.88
2022-10-02T12:47:21.141Z,61.88
2022-10-02T12:48:21.155Z,61.88
2022-10-02T12:49:21.093Z,67.50
2022-10-02T12:50:21.086Z,73.12
2022-10-02T12:51:21.190Z,78.75
2022-10-02T12:52:21.063Z,78.75
2022-10-02T12:53:21.405Z,78.75
2022-10-02T12:54:21.070Z,78.75
2022-10-02T12:55:21.099Z,84.38
2022-10-02T12:56:21.024Z,78.75
2022-10-02T12:57:21.007Z,78.75
2022-10-02T12:58:21.016Z,78.75
2022-10-02T12:59:20.983Z,73.12
2022-10-02T13:00:21.141Z,73.12